Time;durP1;ratioP1;P1;durP2;ratioP2;P2;SDS_P1;SDS_P2;PMS_P1;PMS_P2;Temp;Humidity;BMP_temperature;BMP_pressure;BME280_temperature;BME280_humidity;BME280_pressure;Samples;Min_cycle;Max_cycle;Signal;HPM_P1;HPM_P2
2021/07/29 00:00:36;;;;;;;4.50;2.55;;;16.70;92.20;;;;;;4993211;28;20037;-69
2021/07/29 00:03:03;;;;;;;3.42;2.88;;;16.60;92.20;;;;;;4992956;28;20132;-69
2021/07/29 00:05:30;;;;;;;3.22;2.70;;;16.60;92.20;;;;;;4990597;28;20110;-69
2021/07/29 00:07:56;;;;;;;3.78;2.78;;;16.60;92.20;;;;;;4987280;28;20117;-69
2021/07/29 00:10:22;;;;;;;3.78;3.17;;;16.60;92.30;;;;;;4992510;28;20094;-69
2021/07/29 00:12:48;;;;;;;6.45;2.95;;;16.60;92.30;;;;;;4992752;28;20053;-68
2021/07/29 00:15:16;;;;;;;3.97;2.78;;;16.50;92.20;;;;;;4991772;28;20066;-69
2021/07/29 00:20:18;;;;;;;3.92;2.47;;;16.50;92.30;;;;;;4992870;28;20069;-69
2021/07/29 00:22:45;;;;;;;3.47;2.78;;;16.50;92.40;;;;;;4992837;28;20050;-68
2021/07/29 00:25:14;;;;;;;4.30;2.33;;;16.50;92.40;;;;;;4991428;28;20030;-69
2021/07/29 00:27:40;;;;;;;3.50;2.60;;;16.50;92.40;;;;;;4991960;28;20018;-69
2021/07/29 00:30:07;;;;;;;3.40;2.42;;;16.50;92.40;;;;;;4991400;28;20093;-69
2021/07/29 00:32:33;;;;;;;2.78;2.20;;;16.50;92.30;;;;;;4992372;28;20025;-69
2021/07/29 00:34:58;;;;;;;2.85;2.55;;;16.50;92.30;;;;;;4991225;28;20468;-69
2021/07/29 00:37:24;;;;;;;5.03;2.85;;;16.50;92.30;;;;;;4991875;28;20089;-68
2021/07/29 00:39:50;;;;;;;3.65;2.42;;;16.50;92.30;;;;;;4974792;28;20117;-69
2021/07/29 00:42:15;;;;;;;2.47;2.28;;;16.50;92.30;;;;;;4992089;28;20100;-69
2021/07/29 00:44:41;;;;;;;2.88;2.50;;;16.50;92.30;;;;;;4991119;28;20065;-69
2021/07/29 00:47:07;;;;;;;2.90;2.45;;;16.50;92.40;;;;;;4991747;28;20026;-69
2021/07/29 00:49:33;;;;;;;4.63;2.70;;;16.40;92.40;;;;;;4992236;28;20168;-68
2021/07/29 00:51:59;;;;;;;3.88;2.40;;;16.40;92.40;;;;;;4992065;28;20069;-69
2021/07/29 00:54:28;;;;;;;3.13;2.70;;;16.40;92.40;;;;;;4991943;28;20077;-69
2021/07/29 00:56:54;;;;;;;4.35;2.60;;;16.40;92.50;;;;;;4990874;28;20026;-69
2021/07/29 00:59:20;;;;;;;4.10;2.70;;;16.30;92.40;;;;;;4991883;28;20472;-69
2021/07/29 01:01:45;;;;;;;3.75;2.70;;;16.30;92.40;;;;;;4991597;28;20034;-69
2021/07/29 01:04:11;;;;;;;4.57;2.63;;;16.30;92.50;;;;;;4991795;28;20487;-68
2021/07/29 01:06:37;;;;;;;3.65;2.72;;;16.20;92.40;;;;;;4990674;28;20471;-69
2021/07/29 01:09:10;;;;;;;4.40;3.17;;;16.10;92.70;;;;;;4987254;28;20026;-69
2021/07/29 01:11:39;;;;;;;5.85;3.28;;;16.10;92.60;;;;;;4991438;28;20109;-69
2021/07/29 01:14:06;;;;;;;6.10;3.13;;;16.10;92.60;;;;;;4991828;28;20467;-69
2021/07/29 01:16:32;;;;;;;7.32;3.05;;;16.10;92.60;;;;;;4989800;28;20038;-69
2021/07/29 01:18:59;;;;;;;4.13;3.53;;;16.10;92.60;;;;;;4973975;28;20121;-70
2021/07/29 01:21:26;;;;;;;3.83;3.42;;;16.20;92.60;;;;;;4991705;28;20022;-69
2021/07/29 01:23:52;;;;;;;4.13;3.10;;;16.20;92.70;;;;;;4991700;28;20046;-69
2021/07/29 01:26:17;;;;;;;5.93;3.92;;;16.20;92.90;;;;;;4990056;28;20065;-69
2021/07/29 01:28:43;;;;;;;9.90;4.18;;;16.20;92.70;;;;;;4991185;28;20022;-69
2021/07/29 01:31:08;;;;;;;9.05;4.10;;;16.20;92.70;;;;;;4991118;28;20030;-69
2021/07/29 01:33:35;;;;;;;4.88;3.65;;;16.10;92.60;;;;;;4991444;28;20059;-69
2021/07/29 01:36:01;;;;;;;5.80;3.35;;;16.10;92.60;;;;;;4990127;28;20022;-69
2021/07/29 01:38:26;;;;;;;5.82;3.78;;;16.10;92.60;;;;;;5030988;23;20133;-88
2021/07/29 01:40:52;;;;;;;4.63;3.30;;;16.00;92.70;;;;;;4991275;28;20026;-87
2021/07/29 01:43:17;;;;;;;5.13;3.28;;;16.00;92.70;;;;;;5007950;28;20092;-87
2021/07/29 01:45:44;;;;;;;4.13;3.10;;;15.90;92.60;;;;;;5015814;28;20030;-87
2021/07/29 01:48:10;;;;;;;4.20;3.13;;;15.90;92.70;;;;;;5011168;28;20045;-88
2021/07/29 01:50:35;;;;;;;7.32;2.85;;;15.90;92.70;;;;;;5010597;28;20026;-89
2021/07/29 01:53:01;;;;;;;3.30;3.00;;;15.90;92.70;;;;;;5010814;28;20444;-90
2021/07/29 01:55:27;;;;;;;5.22;2.63;;;15.90;92.70;;;;;;5010859;28;20041;-90
2021/07/29 01:57:52;;;;;;;4.50;2.80;;;15.90;92.80;;;;;;5010574;28;20022;-89
2021/07/29 02:00:18;;;;;;;3.35;3.05;;;15.90;92.70;;;;;;5009875;28;20109;-89
2021/07/29 02:02:44;;;;;;;2.90;2.58;;;15.90;92.70;;;;;;5011054;28;20030;-90
2021/07/29 02:05:09;;;;;;;2.92;2.58;;;15.90;92.70;;;;;;5010447;28;20030;-89
2021/07/29 02:07:35;;;;;;;4.15;2.78;;;15.90;92.70;;;;;;5013304;28;20021;-90
2021/07/29 02:10:00;;;;;;;4.28;2.58;;;15.80;92.80;;;;;;5006642;28;20021;-89
2021/07/29 02:12:26;;;;;;;3.58;3.15;;;15.80;92.80;;;;;;5010587;28;20037;-88
2021/07/29 02:14:51;;;;;;;4.05;2.90;;;15.80;92.80;;;;;;5010796;28;20037;-87
2021/07/29 02:17:20;;;;;;;3.45;2.53;;;15.90;92.80;;;;;;5010434;28;20029;-87
2021/07/29 02:19:47;;;;;;;3.05;2.78;;;15.90;92.80;;;;;;5010307;28;20033;-90
2021/07/29 02:22:12;;;;;;;3.03;2.72;;;15.90;92.80;;;;;;5011853;28;20042;-87
2021/07/29 02:24:38;;;;;;;5.60;2.85;;;15.80;92.80;;;;;;5010010;28;20056;-90
2021/07/29 02:27:04;;;;;;;3.97;2.95;;;15.80;92.80;;;;;;5004618;28;20081;-89
2021/07/29 02:29:29;;;;;;;4.55;3.58;;;15.90;92.80;;;;;;5005965;28;20045;-87
2021/07/29 02:31:55;;;;;;;3.72;2.83;;;15.90;92.80;;;;;;5025770;28;20022;-89
2021/07/29 02:34:20;;;;;;;4.45;2.95;;;15.90;92.80;;;;;;5034322;28;20074;-90
2021/07/29 02:36:46;;;;;;;3.55;2.83;;;15.90;92.90;;;;;;5026656;28;20026;-89
2021/07/29 02:39:11;;;;;;;5.60;3.13;;;15.80;92.80;;;;;;5021759;28;20033;-88
2021/07/29 02:41:37;;;;;;;5.00;2.92;;;15.80;92.80;;;;;;5013778;28;20041;-87
2021/07/29 02:44:03;;;;;;;3.22;2.92;;;15.80;92.90;;;;;;5013649;28;20029;-87
2021/07/29 02:46:29;;;;;;;4.47;3.58;;;15.80;92.90;;;;;;5014020;28;20018;-90
2021/07/29 02:48:55;;;;;;;5.15;3.22;;;15.80;92.80;;;;;;5014312;28;20033;-90
2021/07/29 02:51:21;;;;;;;5.10;3.35;;;15.80;92.80;;;;;;5015311;28;20026;-90
2021/07/29 02:53:47;;;;;;;3.15;2.72;;;15.70;92.80;;;;;;5018042;28;20033;-88
2021/07/29 02:56:12;;;;;;;4.22;2.97;;;15.70;92.80;;;;;;5014085;28;20060;-88
2021/07/29 02:58:38;;;;;;;4.13;2.83;;;15.70;92.70;;;;;;5016634;28;20018;-88
2021/07/29 03:01:04;;;;;;;4.15;3.22;;;15.70;92.80;;;;;;5019443;28;20417;-89
2021/07/29 03:03:31;;;;;;;4.43;3.10;;;15.70;92.80;;;;;;5018728;28;20017;-89
2021/07/29 03:05:56;;;;;;;3.88;2.85;;;15.60;92.70;;;;;;5016795;28;20621;-88
2021/07/29 03:08:22;;;;;;;3.47;2.90;;;15.60;92.80;;;;;;5019833;28;20069;-89
2021/07/29 03:10:48;;;;;;;3.38;3.03;;;15.60;92.80;;;;;;5017580;28;20018;-89
2021/07/29 03:13:15;;;;;;;5.65;3.13;;;15.60;92.80;;;;;;5018350;28;20088;-89
2021/07/29 03:15:41;;;;;;;3.67;2.97;;;15.60;92.80;;;;;;5016464;28;20029;-89
2021/07/29 03:18:06;;;;;;;4.30;2.80;;;15.50;92.70;;;;;;5018659;28;20029;-88
2021/07/29 03:20:32;;;;;;;3.88;3.28;;;15.50;92.80;;;;;;5018167;28;20044;-89
2021/07/29 03:22:58;;;;;;;3.72;3.25;;;15.50;92.80;;;;;;5017062;28;20030;-88
2021/07/29 03:25:24;;;;;;;4.60;2.80;;;15.50;92.80;;;;;;5017084;28;20025;-89
2021/07/29 03:27:50;;;;;;;3.70;2.95;;;15.50;92.80;;;;;;5004306;28;20471;-88
2021/07/29 03:30:16;;;;;;;5.30;3.00;;;15.40;92.80;;;;;;5024199;28;20021;-89
2021/07/29 03:32:41;;;;;;;2.53;2.33;;;15.40;92.80;;;;;;5025429;28;20067;-89
2021/07/29 03:35:07;;;;;;;3.22;2.80;;;15.40;92.80;;;;;;5017101;28;20029;-89
2021/07/29 03:37:33;;;;;;;3.67;2.92;;;15.40;92.80;;;;;;5029620;28;20128;-89
2021/07/29 03:40:04;;;;;;;3.50;3.20;;;15.40;92.80;;;;;;5027821;28;20059;-88
2021/07/29 03:42:34;;;;;;;5.72;3.30;;;15.30;92.80;;;;;;5036776;28;20021;-89
2021/07/29 03:45:00;;;;;;;4.07;2.85;;;15.40;92.90;;;;;;5025393;28;20088;-89
2021/07/29 03:47:27;;;;;;;6.05;2.95;;;15.30;92.80;;;;;;5016723;28;20548;-89
2021/07/29 03:49:53;;;;;;;5.82;3.00;;;15.30;92.80;;;;;;5017385;28;20025;-88
2021/07/29 03:52:19;;;;;;;4.30;2.85;;;15.40;92.80;;;;;;5030237;28;20026;-88
2021/07/29 03:54:44;;;;;;;3.30;3.00;;;15.30;92.80;;;;;;5018629;28;20032;-88
2021/07/29 03:57:11;;;;;;;5.70;2.75;;;15.30;92.80;;;;;;5017653;28;20030;-89
2021/07/29 03:59:37;;;;;;;3.42;3.13;;;15.40;92.80;;;;;;5018206;28;20033;-88
2021/07/29 04:02:09;;;;;;;7.00;3.42;;;15.30;92.80;;;;;;5015535;28;20030;-89
2021/07/29 04:04:38;;;;;;;5.35;3.00;;;15.30;92.80;;;;;;5014866;28;20075;-89
2021/07/29 04:07:05;;;;;;;6.30;3.33;;;15.30;92.80;;;;;;5012448;28;20050;-89
2021/07/29 04:09:31;;;;;;;5.28;3.28;;;15.30;92.80;;;;;;5015835;28;20026;-88
2021/07/29 04:11:57;;;;;;;7.72;3.70;;;15.30;92.80;;;;;;5015609;28;20564;-89
2021/07/29 04:14:22;;;;;;;5.03;3.92;;;15.30;92.80;;;;;;5014076;28;20034;-88
2021/07/29 04:16:48;;;;;;;4.75;3.63;;;15.30;92.90;;;;;;5013810;28;20022;-89
2021/07/29 04:19:13;;;;;;;9.10;3.88;;;15.20;92.80;;;;;;5013542;28;20047;-89
2021/07/29 04:21:39;;;;;;;5.45;3.92;;;15.20;92.90;;;;;;5013672;28;20541;-89
2021/07/29 04:24:04;;;;;;;7.30;4.10;;;15.20;92.90;;;;;;5012571;28;20029;-89
2021/07/29 04:26:30;;;;;;;9.45;4.22;;;15.20;92.90;;;;;;5011687;28;20494;-89
2021/07/29 04:28:55;;;;;;;5.65;3.83;;;15.20;93.00;;;;;;4997735;28;20078;-89
2021/07/29 04:31:21;;;;;;;5.57;3.88;;;15.10;92.90;;;;;;5010557;28;20034;-89
2021/07/29 04:33:47;;;;;;;6.30;4.30;;;15.10;93.00;;;;;;5013341;28;20528;-89
2021/07/29 04:36:12;;;;;;;8.02;4.20;;;15.10;93.00;;;;;;5011682;28;20128;-89
2021/07/29 04:38:38;;;;;;;7.47;4.38;;;15.10;93.00;;;;;;5019951;28;20486;-90
2021/07/29 04:41:07;;;;;;;7.50;4.30;;;15.10;93.10;;;;;;5027148;28;20041;-90
2021/07/29 04:43:32;;;;;;;5.80;4.20;;;15.10;93.30;;;;;;5031884;28;20055;-89
2021/07/29 04:46:02;;;;;;;7.05;4.82;;;15.10;93.10;;;;;;5018715;28;20062;-89
2021/07/29 04:48:29;;;;;;;6.88;5.15;;;15.20;93.20;;;;;;5012851;28;20030;-89
2021/07/29 04:50:59;;;;;;;9.38;5.35;;;15.10;93.10;;;;;;5011243;28;20113;-89
2021/07/29 04:53:25;;;;;;;8.63;5.13;;;15.10;93.10;;;;;;5011702;28;20037;-89
2021/07/29 04:55:50;;;;;;;6.90;4.68;;;15.10;93.10;;;;;;5012552;28;20022;-89
2021/07/29 04:58:16;;;;;;;7.35;4.97;;;15.10;93.10;;;;;;5011534;28;20018;-89
2021/07/29 05:00:41;;;;;;;7.00;5.43;;;15.10;93.20;;;;;;5011552;28;20064;-89
2021/07/29 05:03:07;;;;;;;8.43;5.07;;;15.10;93.30;;;;;;5011856;28;20029;-89
2021/07/29 05:05:32;;;;;;;8.65;5.85;;;15.10;93.40;;;;;;5011122;28;20471;-89
2021/07/29 05:07:58;;;;;;;12.02;8.43;;;15.10;93.30;;;;;;5015218;28;20075;-89
2021/07/29 05:10:23;;;;;;;7.55;5.70;;;15.20;93.30;;;;;;5013961;28;20018;-89
2021/07/29 05:12:49;;;;;;;11.40;5.82;;;15.20;93.30;;;;;;5011577;28;20033;-89
2021/07/29 05:15:15;;;;;;;7.20;5.43;;;15.20;93.40;;;;;;5011070;28;20026;-89
2021/07/29 05:17:40;;;;;;;8.82;5.25;;;15.20;93.50;;;;;;5012307;28;20080;-88
2021/07/29 05:20:06;;;;;;;6.72;5.18;;;15.30;93.50;;;;;;5011018;28;20061;-89
2021/07/29 05:22:32;;;;;;;13.02;8.30;;;15.30;93.50;;;;;;5030255;28;20123;-89
2021/07/29 05:24:58;;;;;;;8.77;4.40;;;15.40;93.50;;;;;;5035192;28;20026;-89
2021/07/29 05:27:23;;;;;;;5.32;3.95;;;15.40;93.50;;;;;;5030714;28;20026;-88
2021/07/29 05:29:49;;;;;;;6.82;4.45;;;15.50;93.50;;;;;;5034349;28;20013;-89
2021/07/29 05:32:14;;;;;;;4.53;4.13;;;15.60;93.50;;;;;;5013263;28;20033;-90
2021/07/29 05:34:40;;;;;;;5.70;4.03;;;15.60;93.60;;;;;;5011244;28;20413;-89
2021/07/29 05:37:05;;;;;;;5.40;3.92;;;15.60;93.50;;;;;;5010569;28;20088;-88
2021/07/29 05:39:34;;;;;;;6.60;3.95;;;15.70;93.60;;;;;;5018924;28;20030;-89
2021/07/29 05:42:01;;;;;;;6.55;4.38;;;15.70;93.50;;;;;;5010908;28;20026;-89
2021/07/29 05:44:27;;;;;;;8.10;5.00;;;15.80;93.50;;;;;;5006656;28;20372;-88
2021/07/29 05:46:53;;;;;;;7.15;5.45;;;15.80;93.50;;;;;;5007417;28;20584;-89
2021/07/29 05:49:18;;;;;;;5.63;4.00;;;15.80;93.50;;;;;;5010781;28;20053;-89
2021/07/29 05:51:44;;;;;;;4.20;3.75;;;15.90;93.50;;;;;;5010707;28;20371;-89
2021/07/29 05:54:09;;;;;;;8.30;4.50;;;15.90;93.50;;;;;;5011065;28;20034;-89
2021/07/29 05:56:35;;;;;;;4.32;3.60;;;15.90;93.50;;;;;;5010698;28;20030;-88
2021/07/29 05:59:00;;;;;;;4.85;3.80;;;15.90;93.50;;;;;;5010853;28;20018;-89
2021/07/29 06:01:26;;;;;;;4.90;3.90;;;16.00;93.50;;;;;;5011881;28;20070;-89
2021/07/29 06:03:52;;;;;;;3.83;3.42;;;16.10;93.60;;;;;;5013448;28;20428;-89
2021/07/29 06:06:17;;;;;;;5.95;3.80;;;16.20;93.50;;;;;;5014324;28;20030;-88
2021/07/29 06:08:44;;;;;;;5.22;3.20;;;16.30;93.50;;;;;;5026979;28;20014;-89
2021/07/29 06:11:09;;;;;;;8.10;6.18;;;16.40;93.40;;;;;;5019447;28;20022;-89
2021/07/29 06:13:35;;;;;;;7.75;3.50;;;16.40;93.30;;;;;;5016771;28;20106;-89
2021/07/29 06:16:08;;;;;;;4.32;3.33;;;16.60;93.30;;;;;;5014802;28;20077;-88
2021/07/29 06:18:37;;;;;;;4.20;3.60;;;16.60;93.20;;;;;;5014837;28;20033;-88
2021/07/29 06:21:03;;;;;;;5.43;3.58;;;16.60;93.20;;;;;;5016572;28;20017;-88
2021/07/29 06:23:28;;;;;;;5.13;3.58;;;16.70;93.20;;;;;;5014261;28;20573;-89
2021/07/29 06:25:54;;;;;;;4.13;3.50;;;16.90;93.20;;;;;;5015049;28;20030;-88
2021/07/29 06:28:19;;;;;;;5.07;3.42;;;16.90;93.20;;;;;;5009594;28;20556;-88
2021/07/29 06:30:45;;;;;;;5.88;3.22;;;17.00;93.10;;;;;;5016296;28;20029;-89
2021/07/29 06:33:11;;;;;;;3.78;3.38;;;17.10;93.00;;;;;;5016164;28;20053;-88
2021/07/29 06:35:36;;;;;;;5.05;3.03;;;17.20;93.00;;;;;;5014763;28;20029;-88
2021/07/29 06:38:02;;;;;;;4.03;2.80;;;17.40;92.90;;;;;;5020740;28;20061;-89
2021/07/29 06:40:28;;;;;;;3.72;2.70;;;17.50;92.90;;;;;;5034118;28;20107;-89
2021/07/29 06:42:53;;;;;;;3.10;2.90;;;17.50;92.90;;;;;;5033507;28;20385;-88
2021/07/29 06:45:19;;;;;;;4.38;3.00;;;17.70;92.70;;;;;;5016026;28;20022;-89
2021/07/29 06:47:47;;;;;;;3.33;3.00;;;17.70;92.60;;;;;;5016035;28;20057;-88
2021/07/29 06:50:13;;;;;;;4.40;3.08;;;17.80;92.60;;;;;;5024813;28;20034;-89
2021/07/29 06:52:39;;;;;;;4.00;2.88;;;17.90;92.50;;;;;;5008503;28;20049;-88
2021/07/29 06:55:06;;;;;;;2.90;2.70;;;18.00;92.50;;;;;;4995679;28;20038;-88
2021/07/29 06:57:31;;;;;;;2.92;2.60;;;18.10;92.40;;;;;;4994296;28;20054;-89
2021/07/29 06:59:57;;;;;;;4.38;2.30;;;18.20;92.20;;;;;;4994175;28;20069;-88
2021/07/29 07:02:22;;;;;;;3.65;2.50;;;18.30;92.00;;;;;;4997713;28;20018;-88
2021/07/29 07:04:48;;;;;;;3.17;2.42;;;18.50;91.90;;;;;;5013535;28;20283;-88
2021/07/29 07:07:16;;;;;;;2.38;2.17;;;18.60;91.70;;;;;;5008629;28;20049;-88
2021/07/29 07:09:42;;;;;;;3.35;2.38;;;18.60;91.50;;;;;;5029993;28;20046;-89
2021/07/29 07:12:07;;;;;;;2.78;2.38;;;18.80;91.30;;;;;;5013382;28;20088;-89
2021/07/29 07:14:33;;;;;;;2.60;2.03;;;18.80;91.10;;;;;;5013064;28;20375;-88
2021/07/29 07:16:58;;;;;;;2.72;1.98;;;18.90;91.00;;;;;;5013673;28;20072;-88
2021/07/29 07:19:24;;;;;;;1.90;1.80;;;19.10;90.90;;;;;;5013444;28;20030;-88
2021/07/29 07:21:50;;;;;;;3.05;2.03;;;19.20;90.80;;;;;;5013728;28;20022;-88
2021/07/29 07:24:15;;;;;;;2.65;2.00;;;19.40;90.50;;;;;;5013642;28;20030;-88
2021/07/29 07:26:41;;;;;;;3.72;2.00;;;19.70;90.10;;;;;;5008882;28;20108;-88
2021/07/29 07:29:06;;;;;;;1.98;1.77;;;20.00;90.10;;;;;;5001146;28;20386;-89
2021/07/29 07:31:32;;;;;;;2.60;2.00;;;20.30;89.80;;;;;;5013695;28;20144;-88
2021/07/29 07:33:59;;;;;;;2.03;1.83;;;20.50;88.70;;;;;;5013475;28;20405;-88
2021/07/29 07:36:24;;;;;;;4.30;2.20;;;20.70;88.00;;;;;;5011743;28;20025;-88
2021/07/29 07:38:52;;;;;;;3.03;1.88;;;20.90;87.00;;;;;;5064133;23;20053;-69
2021/07/29 07:41:18;;;;;;;2.25;2.05;;;21.10;86.50;;;;;;4984843;28;20034;-69
2021/07/29 07:43:44;;;;;;;3.20;1.80;;;21.20;85.60;;;;;;5008706;28;20026;-69
2021/07/29 07:46:09;;;;;;;3.10;1.92;;;21.40;84.90;;;;;;4992953;28;20037;-69
2021/07/29 07:48:35;;;;;;;1.90;1.75;;;21.60;84.40;;;;;;4976007;28;20035;-69
2021/07/29 07:51:01;;;;;;;2.22;1.60;;;21.50;83.70;;;;;;4993429;28;20478;-67
2021/07/29 07:53:29;;;;;;;1.67;1.58;;;21.70;83.40;;;;;;4975957;28;20026;-66
2021/07/29 07:55:56;;;;;;;4.05;1.80;;;21.90;82.50;;;;;;4992464;28;20026;-68
2021/07/29 07:58:22;;;;;;;4.13;2.53;;;22.20;81.20;;;;;;4995291;28;20027;-68
2021/07/29 08:00:48;;;;;;;3.22;2.20;;;22.20;80.60;;;;;;5012902;28;20087;-68
2021/07/29 08:03:14;;;;;;;4.15;1.70;;;22.30;79.70;;;;;;4995177;28;20033;-69
2021/07/29 08:05:40;;;;;;;3.70;1.75;;;22.60;78.80;;;;;;5011956;28;20021;-69
2021/07/29 08:08:08;;;;;;;4.32;1.67;;;22.60;78.30;;;;;;5012137;28;20474;-68
2021/07/29 08:10:38;;;;;;;3.58;1.90;;;22.90;77.40;;;;;;5020340;28;20029;-69
2021/07/29 08:13:05;;;;;;;2.85;1.90;;;23.20;76.50;;;;;;5012656;28;20044;-68
2021/07/29 08:15:31;;;;;;;3.88;1.80;;;23.40;75.80;;;;;;4987487;28;20502;-68
2021/07/29 08:17:57;;;;;;;2.85;1.60;;;23.50;74.70;;;;;;4992727;28;20030;-69
2021/07/29 08:20:25;;;;;;;2.50;1.80;;;23.60;75.30;;;;;;5003874;28;20029;-69
2021/07/29 08:22:52;;;;;;;3.63;1.88;;;23.20;76.00;;;;;;5012053;28;20026;-68
2021/07/29 08:25:19;;;;;;;3.03;1.80;;;22.80;76.20;;;;;;4996777;28;20030;-69
2021/07/29 08:27:46;;;;;;;2.88;1.95;;;22.30;76.90;;;;;;4991679;28;20018;-69
2021/07/29 08:30:11;;;;;;;2.38;2.08;;;22.00;77.50;;;;;;5008583;28;20049;-69
2021/07/29 08:32:37;;;;;;;2.17;1.98;;;21.80;77.40;;;;;;5012129;28;20143;-69
2021/07/29 08:35:03;;;;;;;2.13;1.98;;;21.40;77.40;;;;;;5011399;28;20036;-69
2021/07/29 08:37:28;;;;;;;2.47;2.28;;;21.70;76.60;;;;;;5011905;28;20474;-69
2021/07/29 08:39:54;;;;;;;5.22;1.95;;;22.00;75.90;;;;;;5025218;28;20068;-69
2021/07/29 08:42:20;;;;;;;2.78;2.15;;;22.20;75.80;;;;;;5014340;28;20466;-69
2021/07/29 08:44:45;;;;;;;3.67;2.00;;;22.40;74.90;;;;;;5011416;28;20026;-69
2021/07/29 08:47:16;;;;;;;2.67;2.10;;;22.90;74.10;;;;;;5011803;28;20064;-69
2021/07/29 08:49:45;;;;;;;2.13;1.93;;;23.60;72.70;;;;;;5011964;28;20025;-69
2021/07/29 08:52:11;;;;;;;3.08;1.80;;;24.40;70.70;;;;;;5011985;28;20326;-69
2021/07/29 08:54:39;;;;;;;2.20;1.95;;;24.80;70.10;;;;;;5011005;28;20022;-69
2021/07/29 08:57:05;;;;;;;3.40;2.33;;;24.90;69.20;;;;;;5011755;28;20026;-69
2021/07/29 08:59:30;;;;;;;2.50;2.30;;;24.30;70.60;;;;;;5011325;28;20028;-69
2021/07/29 09:01:59;;;;;;;4.72;2.13;;;23.90;70.10;;;;;;5012169;28;20022;-69
2021/07/29 09:04:25;;;;;;;2.88;2.03;;;23.20;71.10;;;;;;5011785;28;20025;-69
2021/07/29 09:07:02;;;;;;;2.63;2.38;;;23.10;70.80;;;;;;5011317;28;20034;-69
2021/07/29 09:09:41;;;;;;;3.17;2.40;;;23.40;69.50;;;;;;5018415;28;20032;-69
2021/07/29 09:12:17;;;;;;;3.53;2.13;;;23.50;69.00;;;;;;5028228;28;20018;-69
2021/07/29 09:14:44;;;;;;;5.72;2.22;;;24.30;67.00;;;;;;5031677;28;20061;-69
2021/07/29 09:17:10;;;;;;;6.65;2.15;;;24.10;67.20;;;;;;5020730;28;20363;-69
2021/07/29 09:19:44;;;;;;;5.28;2.13;;;24.30;67.00;;;;;;5003203;28;20029;-70
2021/07/29 09:22:14;;;;;;;3.92;2.08;;;24.30;66.10;;;;;;5016428;28;20021;-70
2021/07/29 09:24:59;;;;;;;4.90;2.28;;;24.10;66.90;;;;;;5030667;28;20021;-69
2021/07/29 09:27:27;;;;;;;3.03;2.03;;;24.40;66.10;;;;;;5012316;28;20030;-70
2021/07/29 09:29:52;;;;;;;5.15;2.20;;;25.00;65.00;;;;;;5006158;28;20026;-70
2021/07/29 09:32:20;;;;;;;5.75;2.17;;;24.50;65.20;;;;;;5011337;28;20030;-70
2021/07/29 09:34:50;;;;;;;5.93;2.30;;;25.40;63.90;;;;;;5010470;28;20026;-68
2021/07/29 09:37:18;;;;;;;5.15;2.00;;;25.80;62.40;;;;;;5011011;28;20522;-68
2021/07/29 09:39:44;;;;;;;2.75;1.85;;;26.50;61.70;;;;;;5010099;28;20026;-68
2021/07/29 09:42:20;;;;;;;2.28;1.77;;;26.90;60.80;;;;;;5011039;28;20026;-69
2021/07/29 09:44:48;;;;;;;4.90;2.00;;;27.10;59.70;;;;;;5010581;28;20120;-69
2021/07/29 09:47:15;;;;;;;3.22;1.80;;;27.30;59.50;;;;;;5011201;28;20018;-69
2021/07/29 09:49:41;;;;;;;2.28;1.83;;;27.50;59.40;;;;;;5011402;28;20034;-69
2021/07/29 09:52:07;;;;;;;2.58;2.00;;;27.40;59.40;;;;;;5011337;28;20053;-68
2021/07/29 09:54:35;;;;;;;5.85;2.20;;;26.40;60.10;;;;;;5009882;28;20034;-68
2021/07/29 09:57:01;;;;;;;3.90;2.03;;;25.40;61.20;;;;;;4993378;28;20048;-68
2021/07/29 09:59:27;;;;;;;3.25;2.10;;;25.00;61.70;;;;;;5011377;28;20076;-69
2021/07/29 10:01:54;;;;;;;5.50;1.90;;;24.90;62.40;;;;;;5011498;28;20034;-68
2021/07/29 10:04:30;;;;;;;3.63;2.10;;;24.60;63.10;;;;;;5011193;28;20409;-68
2021/07/29 10:06:59;;;;;;;1.98;1.80;;;24.20;63.60;;;;;;5010579;28;20485;-68
2021/07/29 10:09:27;;;;;;;4.38;2.20;;;23.80;64.40;;;;;;5020819;28;20061;-70
2021/07/29 10:11:58;;;;;;;3.75;2.10;;;23.60;64.30;;;;;;5030814;28;20021;-70
2021/07/29 10:15:03;;;;;;;3.13;2.30;;;23.10;64.90;;;;;;5016081;28;20040;-70
2021/07/29 10:17:34;;;;;;;2.75;2.00;;;22.90;65.10;;;;;;4969274;28;20520;-70
2021/07/29 10:20:16;;;;;;;4.25;1.73;;;22.60;65.40;;;;;;4969874;28;20039;-70
2021/07/29 10:22:45;;;;;;;;;;;22.80;66.30;;;;;;4995639;28;20124;-68
2021/07/29 10:25:11;;;;;;;3.63;2.00;;;23.00;68.30;;;;;;5010069;28;20013;-68
2021/07/29 10:27:37;;;;;;;3.70;2.10;;;23.20;67.60;;;;;;5010369;28;20029;-68
2021/07/29 10:30:21;;;;;;;4.38;2.30;;;23.20;66.70;;;;;;5010284;28;20417;-68
2021/07/29 10:32:47;;;;;;;2.95;2.03;;;23.20;65.40;;;;;;5004182;28;20026;-70
2021/07/29 10:35:31;;;;;;;2.50;2.10;;;23.20;65.70;;;;;;5009173;28;20025;-68
2021/07/29 10:37:58;;;;;;;2.28;1.95;;;23.40;66.40;;;;;;5010626;28;20080;-68
2021/07/29 10:40:34;;;;;;;3.67;2.30;;;23.50;67.00;;;;;;5010431;28;20022;-70
2021/07/29 10:43:25;;;;;;;2.58;1.80;;;23.60;65.90;;;;;;5030476;28;20072;-67
2021/07/29 10:45:51;;;;;;;3.38;2.05;;;23.50;65.50;;;;;;5029568;28;20018;-70
2021/07/29 10:48:48;;;;;;;2.30;2.10;;;23.50;65.70;;;;;;5030899;28;20088;-68
2021/07/29 10:51:15;;;;;;;3.10;2.20;;;23.30;65.30;;;;;;5034233;28;20025;-68
2021/07/29 10:53:47;;;;;;;2.75;2.08;;;23.20;66.00;;;;;;5030607;28;20033;-67
2021/07/29 10:56:15;;;;;;;6.40;2.40;;;23.30;65.90;;;;;;5013201;28;20522;-69
2021/07/29 10:58:45;;;;;;;3.20;2.03;;;23.10;65.90;;;;;;5014241;28;20030;-67
2021/07/29 11:01:12;;;;;;;2.38;2.15;;;23.00;65.20;;;;;;5014346;28;20355;-68
2021/07/29 11:06:23;;;;;;;3.30;2.10;;;22.80;64.90;;;;;;5013087;28;20148;-68
2021/07/29 11:08:50;;;;;;;3.70;2.33;;;22.70;64.80;;;;;;5015097;28;20096;-68
2021/07/29 11:11:16;;;;;;;4.18;2.50;;;22.60;65.50;;;;;;5015510;28;20429;-68
2021/07/29 11:13:50;;;;;;;2.90;2.13;;;22.60;65.40;;;;;;5013805;28;20536;-68
2021/07/29 11:16:16;;;;;;;2.80;2.30;;;22.60;65.40;;;;;;4992097;28;20038;-67
2021/07/29 11:18:56;;;;;;;4.40;2.67;;;22.70;65.90;;;;;;4994417;28;20022;-69
2021/07/29 11:21:22;;;;;;;5.50;2.50;;;22.70;65.20;;;;;;4976825;28;20466;-67
2021/07/29 11:23:47;;;;;;;5.13;2.22;;;22.70;65.00;;;;;;4994282;28;20041;-68
2021/07/29 11:26:13;;;;;;;3.03;2.70;;;22.80;65.30;;;;;;4993143;28;20034;-68
2021/07/29 11:28:39;;;;;;;3.08;2.65;;;22.90;65.00;;;;;;5012846;28;20101;-69
2021/07/29 11:31:05;;;;;;;3.90;2.53;;;23.10;65.10;;;;;;5013622;28;20471;-69
2021/07/29 11:33:31;;;;;;;3.63;2.40;;;23.10;64.70;;;;;;5013801;28;20118;-69
2021/07/29 11:36:07;;;;;;;3.22;2.58;;;23.20;64.60;;;;;;5012596;28;20121;-68
2021/07/29 11:38:33;;;;;;;4.53;2.53;;;23.30;64.20;;;;;;5013449;28;20026;-69
2021/07/29 11:41:01;;;;;;;6.63;2.83;;;23.40;64.90;;;;;;5013299;28;20049;-69
2021/07/29 11:43:31;;;;;;;3.63;2.40;;;23.50;64.30;;;;;;5013505;28;20076;-69
2021/07/29 11:46:08;;;;;;;3.83;2.13;;;23.60;64.10;;;;;;5012584;28;20084;-69
2021/07/29 11:48:34;;;;;;;4.07;2.47;;;23.70;64.80;;;;;;5013389;28;20022;-68
2021/07/29 11:51:00;;;;;;;4.32;2.10;;;23.80;63.60;;;;;;5012655;28;20041;-69
2021/07/29 11:53:39;;;;;;;2.67;2.20;;;23.50;63.60;;;;;;5013244;28;20052;-69
2021/07/29 11:56:08;;;;;;;3.80;2.35;;;23.40;63.90;;;;;;5009583;28;20490;-70
2021/07/29 11:58:35;;;;;;;2.78;2.40;;;23.30;64.60;;;;;;5012135;28;20026;-68
2021/07/29 12:01:08;;;;;;;3.50;2.90;;;23.30;63.60;;;;;;5013089;28;20033;-69
2021/07/29 12:03:36;;;;;;;5.97;2.72;;;23.20;63.00;;;;;;5013165;28;20101;-69
2021/07/29 12:06:03;;;;;;;4.45;2.83;;;23.20;63.30;;;;;;5011317;28;20034;-69
2021/07/29 12:08:29;;;;;;;3.05;2.20;;;23.20;63.10;;;;;;5012899;28;20057;-68
2021/07/29 12:10:57;;;;;;;4.28;2.72;;;23.20;63.30;;;;;;5012764;28;20025;-71
2021/07/29 12:13:23;;;;;;;3.33;2.50;;;23.30;63.60;;;;;;5012957;28;20092;-68
2021/07/29 12:15:50;;;;;;;3.65;2.35;;;23.50;64.00;;;;;;5011908;28;20029;-70
2021/07/29 12:18:21;;;;;;;5.50;2.50;;;23.70;64.30;;;;;;5012429;28;20018;-69
2021/07/29 12:20:48;;;;;;;4.72;2.30;;;23.90;63.90;;;;;;5012493;28;20056;-68
2021/07/29 12:23:15;;;;;;;4.65;2.75;;;24.00;63.00;;;;;;5012869;28;20021;-69
2021/07/29 12:25:41;;;;;;;4.35;2.40;;;24.00;62.70;;;;;;5011434;28;20025;-69
2021/07/29 12:28:07;;;;;;;4.00;2.58;;;24.00;62.70;;;;;;5012118;28;20479;-68
2021/07/29 12:30:42;;;;;;;5.20;2.90;;;24.00;62.40;;;;;;5011164;28;20018;-69
2021/07/29 12:33:15;;;;;;;3.72;3.05;;;24.10;62.50;;;;;;5012456;28;20026;-69
2021/07/29 12:36:06;;;;;;;5.28;2.50;;;24.20;62.30;;;;;;5010825;28;20068;-70
2021/07/29 12:38:35;;;;;;;3.63;3.15;;;24.10;62.20;;;;;;5007466;28;20042;-69
2021/07/29 12:41:02;;;;;;;4.22;2.35;;;24.00;61.80;;;;;;5012194;28;20026;-69
2021/07/29 12:43:28;;;;;;;3.17;2.50;;;23.90;62.00;;;;;;5012066;28;20026;-69
2021/07/29 12:45:56;;;;;;;3.30;2.53;;;24.00;62.90;;;;;;5011349;28;20022;-71
2021/07/29 12:48:51;;;;;;;3.42;2.40;;;24.20;62.70;;;;;;5012199;28;20418;-70
2021/07/29 12:51:45;;;;;;;3.40;2.10;;;24.30;62.10;;;;;;5011731;28;20080;-69
2021/07/29 12:54:12;;;;;;;5.10;2.55;;;24.20;61.00;;;;;;5012099;28;20033;-69